createdAt,value
2018-08-04T00:01:29.054Z,87.20
2018-08-04T00:03:58.012Z,87.60
2018-08-04T00:06:26.974Z,87.30
2018-08-04T00:08:56.119Z,88.20
2018-08-04T00:11:25.100Z,88.40
2018-08-04T00:13:54.241Z,88.00
2018-08-04T00:16:23.245Z,88.10
2018-08-04T00:18:52.211Z,89.20
2018-08-04T00:21:21.369Z,89.50
2018-08-04T00:23:50.646Z,89.10
2018-08-04T00:26:19.848Z,89.80
2018-08-04T00:28:48.940Z,90.10
2018-08-04T00:31:17.949Z,89.70
2018-08-04T00:33:55.131Z,90.10
2018-08-04T00:36:24.326Z,90.40
2018-08-04T00:38:53.616Z,90.30
2018-08-04T00:41:22.591Z,90.20
2018-08-04T00:43:52.349Z,90.80
2018-08-04T00:46:21.527Z,90.80
2018-08-04T00:48:50.527Z,91.00
2018-08-04T00:51:19.497Z,91.30
2018-08-04T00:53:48.437Z,91.40
2018-08-04T00:56:17.539Z,91.70
2018-08-04T00:58:46.855Z,91.30
2018-08-04T01:01:15.884Z,91.90
2018-08-04T01:03:44.953Z,92.00
2018-08-04T01:06:13.909Z,92.10
2018-08-04T01:08:42.904Z,92.20
2018-08-04T01:11:11.849Z,92.30
2018-08-04T01:13:40.838Z,92.70
2018-08-04T01:16:09.994Z,92.60
2018-08-04T01:18:39.022Z,92.50
2018-08-04T01:21:08.211Z,92.90
2018-08-04T01:23:37.193Z,92.80
2018-08-04T01:26:06.173Z,92.80
2018-08-04T01:28:35.077Z,93.00
2018-08-04T01:31:04.047Z,93.50
2018-08-04T01:33:33.033Z,93.80
2018-08-04T01:36:02.104Z,93.60
2018-08-04T01:38:31.037Z,93.50
2018-08-04T01:41:00.045Z,94.10
2018-08-04T01:43:29.194Z,94.00
2018-08-04T01:48:26.798Z,93.40
2018-08-04T01:50:55.792Z,93.70
2018-08-04T01:53:24.760Z,93.70
2018-08-04T01:58:22.448Z,94.30
2018-08-04T02:00:51.824Z,94.10
2018-08-04T02:03:21.093Z,94.50
2018-08-04T02:05:50.315Z,94.10
2018-08-04T02:10:48.552Z,94.80
2018-08-04T02:13:17.757Z,94.80
2018-08-04T02:15:46.850Z,94.50
2018-08-04T02:18:15.975Z,94.80
2018-08-04T02:20:44.952Z,95.30
2018-08-04T02:23:13.980Z,95.20
2018-08-04T02:25:42.953Z,95.20
2018-08-04T02:28:12.239Z,95.60
2018-08-04T02:30:41.194Z,95.60
2018-08-04T02:33:10.167Z,95.80
2018-08-04T02:35:39.182Z,95.40
2018-08-04T02:40:36.816Z,96.20
2018-08-04T02:43:06.014Z,96.10
2018-08-04T02:45:34.982Z,95.40
2018-08-04T02:48:04.026Z,96.20
2018-08-04T02:50:33.045Z,96.40
2018-08-04T02:53:02.294Z,96.40
2018-08-04T02:55:31.293Z,96.40
2018-08-04T02:58:00.232Z,96.40
2018-08-04T03:00:29.326Z,96.70
2018-08-04T03:02:58.267Z,96.40
2018-08-04T03:05:27.316Z,96.80
2018-08-04T03:07:56.245Z,96.40
2018-08-04T03:10:25.196Z,96.40
2018-08-04T03:12:54.112Z,96.30
2018-08-04T03:15:23.164Z,96.40
2018-08-04T03:17:52.225Z,96.60
2018-08-04T03:20:21.222Z,96.50
2018-08-04T03:22:50.177Z,96.50
2018-08-04T03:25:19.275Z,96.50
2018-08-04T03:27:48.224Z,96.30
2018-08-04T03:30:17.326Z,96.40
2018-08-04T03:32:48.398Z,96.20
2018-08-04T03:35:17.531Z,96.60
2018-08-04T03:37:47.669Z,96.70
2018-08-04T03:40:16.717Z,96.40
2018-08-04T03:42:45.779Z,96.90
2018-08-04T03:45:15.046Z,96.60
2018-08-04T03:47:44.065Z,96.50
2018-08-04T03:50:13.041Z,96.70
2018-08-04T03:52:42.069Z,96.60
2018-08-04T03:55:11.146Z,97.10
2018-08-04T03:57:40.067Z,97.00
2018-08-04T04:00:09.120Z,96.90
2018-08-04T04:02:38.117Z,97.20
2018-08-04T04:05:07.071Z,96.90
2018-08-04T04:07:36.057Z,96.90
2018-08-04T04:10:05.245Z,96.60
2018-08-04T04:12:38.246Z,96.30
2018-08-04T04:15:07.462Z,96.80
2018-08-04T04:17:46.207Z,96.60
2018-08-04T04:20:16.653Z,96.80
2018-08-04T04:22:45.586Z,96.70
2018-08-04T04:25:14.577Z,96.60
2018-08-04T04:27:44.118Z,96.70
2018-08-04T04:30:13.796Z,96.60
2018-08-04T04:32:42.772Z,96.60
2018-08-04T04:35:11.905Z,96.60
2018-08-04T04:37:40.872Z,97.10
2018-08-04T04:40:09.836Z,97.00
2018-08-04T04:42:38.776Z,96.90
2018-08-04T04:45:07.726Z,96.70
2018-08-04T04:47:36.725Z,96.60
2018-08-04T04:50:05.701Z,96.60
2018-08-04T04:52:34.650Z,96.40
2018-08-04T04:55:03.617Z,96.60
2018-08-04T04:57:32.713Z,96.60
2018-08-04T05:00:01.700Z,96.40
2018-08-04T05:02:30.713Z,96.70
2018-08-04T05:04:59.775Z,96.30
2018-08-04T05:07:28.874Z,96.40
2018-08-04T05:09:57.825Z,96.20
2018-08-04T05:12:26.772Z,96.10
2018-08-04T05:14:55.700Z,96.10
2018-08-04T05:17:24.653Z,96.80
2018-08-04T05:19:54.098Z,96.20
2018-08-04T05:22:23.077Z,95.60
2018-08-04T05:24:52.022Z,96.00
2018-08-04T05:27:21.194Z,95.80
2018-08-04T05:29:50.316Z,96.00
2018-08-04T05:32:19.247Z,96.40
2018-08-04T05:37:17.106Z,96.10
2018-08-04T05:39:46.094Z,95.70
2018-08-04T05:42:15.509Z,95.90
2018-08-04T05:44:44.479Z,95.20
2018-08-04T05:47:13.579Z,95.30
2018-08-04T05:49:42.712Z,95.30
2018-08-04T05:54:40.611Z,94.50
2018-08-04T05:57:09.771Z,93.40
2018-08-04T05:59:38.968Z,92.70
2018-08-04T06:04:36.991Z,92.50
2018-08-04T06:07:08.303Z,91.70
2018-08-04T06:09:37.707Z,91.00
2018-08-04T06:12:07.129Z,91.20
2018-08-04T06:14:36.542Z,91.00
2018-08-04T06:17:05.885Z,90.20
2018-08-04T06:19:34.898Z,90.10
2018-08-04T06:22:03.847Z,88.60
2018-08-04T06:24:32.885Z,89.20
2018-08-04T06:27:01.921Z,87.80
2018-08-04T06:29:30.886Z,87.80
2018-08-04T06:32:00.063Z,87.30
2018-08-04T06:34:29.408Z,88.00
2018-08-04T06:36:58.603Z,88.20
2018-08-04T06:39:27.828Z,88.10
2018-08-04T06:46:54.403Z,88.80
2018-08-04T06:49:23.321Z,88.70
2018-08-04T06:51:52.698Z,86.40
2018-08-04T06:54:21.752Z,86.70
2018-08-04T06:56:50.813Z,86.90
2018-08-04T06:59:19.858Z,85.80
2018-08-04T07:01:49.327Z,85.00
2018-08-04T07:04:18.544Z,85.10
2018-08-04T07:06:47.656Z,85.00
2018-08-04T07:09:16.577Z,83.60
2018-08-04T07:14:14.257Z,81.60
2018-08-04T07:16:43.496Z,81.70
2018-08-04T07:19:12.459Z,81.60
2018-08-04T07:21:41.449Z,81.50
2018-08-04T07:24:10.387Z,81.20
2018-08-04T07:26:39.645Z,81.70
2018-08-04T07:29:08.805Z,81.20
2018-08-04T07:31:38.017Z,78.70
2018-08-04T07:34:06.996Z,77.50
2018-08-04T07:39:06.680Z,75.50
2018-08-04T07:41:35.783Z,73.60
2018-08-04T07:44:05.779Z,73.20
2018-08-04T07:46:35.046Z,71.10
2018-08-04T07:49:04.129Z,70.90
2018-08-04T07:51:33.077Z,70.20
2018-08-04T07:54:02.161Z,69.40
2018-08-04T07:56:31.276Z,67.80
2018-08-04T07:59:00.433Z,67.70
2018-08-04T08:01:29.461Z,66.70
2018-08-04T08:03:58.650Z,65.50
2018-08-04T08:06:27.839Z,64.80
2018-08-04T08:08:56.948Z,62.80
2018-08-04T08:11:26.090Z,63.70
2018-08-04T08:13:55.117Z,62.30
2018-08-04T08:16:24.952Z,62.20
2018-08-04T08:18:53.983Z,60.60
2018-08-04T08:21:22.990Z,60.00
2018-08-04T08:23:52.031Z,60.00
2018-08-04T08:28:49.722Z,59.10
2018-08-04T08:31:19.367Z,59.60
2018-08-04T08:33:48.840Z,57.70
2018-08-04T08:36:18.779Z,56.70
2018-08-04T08:38:48.370Z,56.20
2018-08-04T08:41:17.858Z,55.70
2018-08-04T08:43:47.566Z,55.20
2018-08-04T08:46:17.529Z,54.10
2018-08-04T08:48:47.141Z,53.40
2018-08-04T08:51:16.787Z,52.30
2018-08-04T08:53:46.705Z,52.30
2018-08-04T08:56:16.593Z,52.50
2018-08-04T08:58:46.601Z,51.30
2018-08-04T09:01:15.936Z,51.00
2018-08-04T09:03:45.433Z,49.00
2018-08-04T09:08:43.024Z,48.20
2018-08-04T09:13:40.917Z,48.80
2018-08-04T09:16:10.155Z,49.50
2018-08-04T09:18:39.109Z,51.40
2018-08-04T09:21:08.083Z,51.50
2018-08-04T09:23:37.042Z,49.80
2018-08-04T09:28:34.647Z,49.60
2018-08-04T09:31:03.698Z,49.80
2018-08-04T09:33:32.650Z,50.00
2018-08-04T09:36:01.586Z,49.50
2018-08-04T09:38:30.730Z,49.30
2018-08-04T09:40:59.788Z,49.10
2018-08-04T09:43:28.795Z,49.30
2018-08-04T09:48:26.461Z,48.80
2018-08-04T09:50:55.745Z,47.00
2018-08-04T09:53:25.900Z,46.90
2018-08-04T09:55:54.960Z,47.30
2018-08-04T09:58:25.121Z,47.80
2018-08-04T10:01:00.669Z,47.20
2018-08-04T10:03:30.758Z,46.90
2018-08-04T10:06:00.151Z,46.40
2018-08-04T10:08:29.211Z,45.90
2018-08-04T10:10:58.342Z,45.80
2018-08-04T10:13:27.561Z,45.10
2018-08-04T10:15:56.591Z,44.90
2018-08-04T10:18:25.678Z,44.40
2018-08-04T10:20:55.061Z,44.80
2018-08-04T10:23:24.072Z,44.60
2018-08-04T10:25:53.114Z,45.00
2018-08-04T10:28:22.237Z,43.30
2018-08-04T10:30:55.202Z,45.10
2018-08-04T10:33:24.256Z,44.20
2018-08-04T10:35:54.026Z,44.30
2018-08-04T10:40:51.749Z,43.50
2018-08-04T10:43:20.839Z,42.90
2018-08-04T10:45:49.801Z,43.30
2018-08-04T10:48:18.994Z,43.90
2018-08-04T10:50:47.970Z,43.30
2018-08-04T10:53:17.151Z,43.70
2018-08-04T10:55:46.181Z,43.90
2018-08-04T10:58:15.287Z,43.50
2018-08-04T11:00:44.288Z,43.60
2018-08-04T11:03:13.352Z,43.10
2018-08-04T11:05:42.333Z,41.80
2018-08-04T11:08:11.457Z,42.10
2018-08-04T11:10:40.446Z,42.00
2018-08-04T11:13:09.533Z,41.30
2018-08-04T11:18:07.641Z,40.90
2018-08-04T11:20:36.685Z,41.10
2018-08-04T11:23:05.938Z,41.80
2018-08-04T11:25:35.255Z,42.40
2018-08-04T11:28:04.272Z,42.00
2018-08-04T11:30:33.514Z,42.00
2018-08-04T11:35:31.425Z,42.00
2018-08-04T11:38:00.382Z,41.90
2018-08-04T11:40:29.338Z,41.90
2018-08-04T11:42:58.301Z,41.70
2018-08-04T11:45:27.325Z,41.10
2018-08-04T11:47:56.359Z,41.00
2018-08-04T11:50:25.400Z,42.00
2018-08-04T11:52:54.414Z,41.40
2018-08-04T11:55:23.395Z,42.10
2018-08-04T11:57:52.446Z,40.80
2018-08-04T12:00:21.454Z,40.10
2018-08-04T12:02:50.686Z,40.50
2018-08-04T12:05:19.834Z,41.80
2018-08-04T12:07:48.838Z,41.10
2018-08-04T12:10:17.844Z,42.20
2018-08-04T12:12:47.033Z,41.60
2018-08-04T12:15:16.001Z,41.10
2018-08-04T12:17:45.016Z,41.40
2018-08-04T12:20:14.187Z,40.80
2018-08-04T12:22:43.475Z,41.30
2018-08-04T12:25:12.447Z,41.40
2018-08-04T12:27:41.576Z,40.80
2018-08-04T12:30:11.055Z,40.10
2018-08-04T12:32:41.219Z,39.70
2018-08-04T12:35:10.400Z,40.20
2018-08-04T12:37:39.665Z,40.80
2018-08-04T12:40:08.560Z,40.10
2018-08-04T12:42:37.734Z,40.10
2018-08-04T12:47:36.177Z,39.60
2018-08-04T12:50:05.546Z,39.70
2018-08-04T12:52:34.520Z,40.10
2018-08-04T12:55:03.573Z,39.30
2018-08-04T12:57:32.628Z,39.20
2018-08-04T13:00:01.796Z,39.70
2018-08-04T13:02:30.812Z,40.00
2018-08-04T13:04:59.898Z,39.40
2018-08-04T13:07:28.893Z,39.50
2018-08-04T13:09:58.014Z,40.30
2018-08-04T13:12:27.164Z,39.80
2018-08-04T13:14:56.296Z,40.30
2018-08-04T13:17:25.739Z,39.80
2018-08-04T13:22:24.483Z,38.90
2018-08-04T13:24:53.512Z,38.60
2018-08-04T13:29:51.312Z,39.50
2018-08-04T13:32:20.400Z,39.50
2018-08-04T13:37:18.328Z,39.70
2018-08-04T13:39:47.500Z,39.70
2018-08-04T13:42:16.533Z,40.10
2018-08-04T13:44:45.539Z,40.10
2018-08-04T13:47:14.688Z,39.50
2018-08-04T13:49:43.745Z,40.10
2018-08-04T13:52:13.133Z,39.50
2018-08-04T13:54:42.082Z,39.00
2018-08-04T13:57:11.080Z,38.80
2018-08-04T13:59:40.299Z,39.20
2018-08-04T14:02:09.381Z,39.70
2018-08-04T14:07:08.360Z,39.10
2018-08-04T14:09:37.527Z,39.40
2018-08-04T14:12:06.958Z,39.00
2018-08-04T14:14:35.984Z,38.70
2018-08-04T14:17:05.107Z,38.70
2018-08-04T14:19:34.281Z,38.00
2018-08-04T14:22:03.335Z,39.00
2018-08-04T14:24:32.480Z,39.50
2018-08-04T14:27:01.550Z,38.70
2018-08-04T14:29:30.726Z,38.70
2018-08-04T14:31:59.865Z,38.40
2018-08-04T14:34:29.891Z,38.60
2018-08-04T14:36:58.927Z,39.10
2018-08-04T14:39:28.100Z,38.90
2018-08-04T14:44:26.429Z,40.00
2018-08-04T14:46:55.620Z,40.60
2018-08-04T14:49:24.818Z,40.80
2018-08-04T14:51:53.817Z,41.00
2018-08-04T14:54:22.979Z,41.70
2018-08-04T14:56:51.962Z,41.10
2018-08-04T15:01:49.824Z,40.90
2018-08-04T15:04:18.952Z,40.90
2018-08-04T15:06:47.978Z,40.60
2018-08-04T15:09:16.937Z,41.20
2018-08-04T15:11:45.917Z,41.60
2018-08-04T15:16:44.030Z,40.50
2018-08-04T15:19:13.075Z,40.30
2018-08-04T15:24:11.181Z,40.80
2018-08-04T15:26:40.365Z,40.70
2018-08-04T15:31:38.589Z,42.00
2018-08-04T15:34:07.834Z,42.20
2018-08-04T15:36:36.985Z,41.40
2018-08-04T15:39:08.478Z,42.10
2018-08-04T15:41:37.500Z,42.10
2018-08-04T15:44:06.546Z,42.50
2018-08-04T15:46:35.509Z,42.80
2018-08-04T15:49:04.655Z,43.10
2018-08-04T15:51:34.587Z,42.50
2018-08-04T15:54:03.870Z,43.80
2018-08-04T15:56:33.302Z,45.10
2018-08-04T15:59:02.353Z,45.80
2018-08-04T16:01:31.290Z,46.70
2018-08-04T16:06:29.042Z,48.10
2018-08-04T16:08:58.042Z,48.10
2018-08-04T16:11:27.010Z,48.70
2018-08-04T16:13:56.356Z,48.40
2018-08-04T16:16:25.336Z,49.30
2018-08-04T16:18:54.747Z,49.40
2018-08-04T16:21:23.771Z,49.70
2018-08-04T16:23:53.943Z,51.00
2018-08-04T16:26:23.567Z,53.30
2018-08-04T16:28:52.835Z,53.10
2018-08-04T16:36:19.053Z,55.20
2018-08-04T16:38:49.781Z,55.80
2018-08-04T16:41:19.215Z,57.20
2018-08-04T16:43:48.237Z,57.70
2018-08-04T16:46:17.453Z,59.10
2018-08-04T16:48:46.732Z,60.20
2018-08-04T16:51:15.789Z,60.20
2018-08-04T16:53:44.785Z,61.00
2018-08-04T16:56:14.397Z,62.20
2018-08-04T16:58:43.368Z,62.30
2018-08-04T17:01:12.354Z,63.00
2018-08-04T17:03:41.479Z,65.50
2018-08-04T17:06:10.502Z,66.60
2018-08-04T17:08:39.487Z,68.00
2018-08-04T17:11:08.475Z,69.30
2018-08-04T17:13:38.738Z,68.70
2018-08-04T17:16:07.740Z,67.90
2018-08-04T17:18:36.786Z,68.80
2018-08-04T17:21:05.774Z,70.30
2018-08-04T17:23:34.742Z,70.60
2018-08-04T17:28:32.293Z,68.30
2018-08-04T17:31:01.877Z,68.90
2018-08-04T17:33:30.869Z,69.60
2018-08-04T17:36:02.210Z,68.80
2018-08-04T17:38:31.276Z,69.40
2018-08-04T17:41:00.346Z,70.10
2018-08-04T17:45:59.023Z,71.30
2018-08-04T17:48:28.006Z,72.30
2018-08-04T17:53:25.654Z,71.10
2018-08-04T17:55:54.629Z,72.70
2018-08-04T17:58:23.643Z,71.60
2018-08-04T18:00:52.883Z,73.60
2018-08-04T18:03:21.823Z,74.60
2018-08-04T18:05:50.812Z,74.10
2018-08-04T18:08:19.950Z,75.00
2018-08-04T18:10:48.959Z,76.90
2018-08-04T18:13:17.983Z,76.30
2018-08-04T18:15:47.540Z,77.60
2018-08-04T18:18:17.692Z,77.50
2018-08-04T18:20:46.649Z,79.40
2018-08-04T18:23:15.680Z,79.20
2018-08-04T18:25:44.611Z,79.90
2018-08-04T18:28:14.785Z,79.50
2018-08-04T18:30:43.889Z,81.00
2018-08-04T18:33:12.949Z,81.90
2018-08-04T18:38:10.697Z,82.80
2018-08-04T18:40:39.809Z,83.50
2018-08-04T18:43:09.040Z,83.90
2018-08-04T18:45:38.145Z,84.20
2018-08-04T18:48:07.107Z,84.70
2018-08-04T18:50:36.079Z,85.00
2018-08-04T18:53:05.114Z,85.90
2018-08-04T18:55:34.218Z,85.90
2018-08-04T18:58:03.165Z,86.10
2018-08-04T19:00:32.177Z,86.40
2018-08-04T19:03:01.182Z,86.30
2018-08-04T19:05:30.347Z,87.00
2018-08-04T19:10:28.256Z,88.20
2018-08-04T19:12:57.537Z,88.80
2018-08-04T19:15:26.527Z,89.50
2018-08-04T19:17:55.541Z,89.80
2018-08-04T19:20:24.520Z,90.20
2018-08-04T19:22:53.481Z,90.40
2018-08-04T19:25:22.920Z,90.60
2018-08-04T19:27:51.913Z,90.80
2018-08-04T19:32:49.515Z,91.10
2018-08-04T19:35:18.529Z,91.40
2018-08-04T19:37:47.585Z,91.60
2018-08-04T19:40:16.893Z,91.80
2018-08-04T19:42:45.866Z,91.90
2018-08-04T19:45:14.942Z,92.20
2018-08-04T19:47:44.030Z,92.30
2018-08-04T19:50:13.020Z,92.60
2018-08-04T19:52:42.053Z,92.70
2018-08-04T19:55:11.045Z,93.00
2018-08-04T19:57:40.023Z,93.30
2018-08-04T20:00:09.268Z,93.00
2018-08-04T20:02:38.255Z,93.40
2018-08-04T20:05:07.211Z,93.30
2018-08-04T20:07:36.221Z,93.30
2018-08-04T20:10:05.217Z,93.40
2018-08-04T20:12:34.186Z,93.50
2018-08-04T20:15:03.121Z,93.50
2018-08-04T20:17:32.202Z,93.80
2018-08-04T20:20:01.137Z,93.70
2018-08-04T20:22:30.287Z,94.10
2018-08-04T20:24:59.217Z,94.10
2018-08-04T20:27:28.245Z,94.10
2018-08-04T20:29:57.549Z,94.30
2018-08-04T20:32:26.533Z,94.30
2018-08-04T20:34:55.569Z,94.40
2018-08-04T20:39:53.269Z,95.00
2018-08-04T20:42:22.218Z,95.00
2018-08-04T20:44:51.222Z,95.20
2018-08-04T20:47:20.221Z,95.40
2018-08-04T20:49:49.239Z,95.30
2018-08-04T20:52:18.220Z,95.50
2018-08-04T20:54:47.296Z,95.90
2018-08-04T20:59:45.025Z,95.70
2018-08-04T21:02:14.143Z,95.80
2018-08-04T21:04:43.193Z,96.00
2018-08-04T21:07:12.257Z,96.30
2018-08-04T21:09:41.455Z,96.30
2018-08-04T21:14:39.267Z,96.70
2018-08-04T21:17:08.338Z,96.70
2018-08-04T21:19:37.433Z,96.90
2018-08-04T21:22:06.719Z,97.00
2018-08-04T21:24:35.796Z,97.10
2018-08-04T21:27:05.018Z,97.40
2018-08-04T21:29:34.079Z,97.50
2018-08-04T21:32:03.030Z,97.20
2018-08-04T21:34:32.104Z,97.90
2018-08-04T21:37:01.109Z,98.10
2018-08-04T21:39:30.079Z,98.20
2018-08-04T21:41:59.007Z,98.50
2018-08-04T21:44:28.033Z,98.90
2018-08-04T21:46:57.077Z,98.80
2018-08-04T21:49:26.164Z,99.00
2018-08-04T21:51:55.074Z,99.20
2018-08-04T21:54:24.111Z,99.40
2018-08-04T21:59:22.016Z,99.80
2018-08-04T22:01:54.642Z,99.90
2018-08-04T22:04:23.877Z,99.90
2018-08-04T22:08:01.989Z,99.90
2018-08-04T22:10:30.973Z,99.90
2018-08-04T22:13:00.195Z,99.90
2018-08-04T22:15:30.098Z,99.90
2018-08-04T22:17:59.059Z,99.90
2018-08-04T22:20:28.639Z,99.90
2018-08-04T22:22:57.994Z,99.90
2018-08-04T22:25:28.265Z,99.90
2018-08-04T22:27:58.134Z,99.90
2018-08-04T22:30:27.282Z,99.90
2018-08-04T22:32:56.241Z,99.90
2018-08-04T22:35:25.382Z,99.90
2018-08-04T22:37:54.417Z,99.90
2018-08-04T22:40:23.462Z,99.90
2018-08-04T22:42:52.401Z,99.90
2018-08-04T22:45:47.477Z,99.90
2018-08-04T22:48:17.671Z,99.90
2018-08-04T22:50:46.849Z,99.90
2018-08-04T22:53:16.489Z,99.90
2018-08-04T22:55:45.441Z,99.90
2018-08-04T22:58:14.420Z,99.90
2018-08-04T23:00:44.678Z,99.90
2018-08-04T23:03:14.213Z,99.90
2018-08-04T23:05:43.216Z,99.90
2018-08-04T23:08:13.361Z,99.90
2018-08-04T23:10:42.972Z,99.90
2018-08-04T23:13:12.477Z,99.90
2018-08-04T23:15:41.529Z,99.90
2018-08-04T23:20:39.359Z,99.90
2018-08-04T23:23:09.379Z,99.90
2018-08-04T23:25:38.530Z,99.90
2018-08-04T23:28:07.819Z,99.90
2018-08-04T23:30:36.915Z,99.90
2018-08-04T23:35:34.658Z,99.90
2018-08-04T23:38:03.634Z,99.90
2018-08-04T23:40:32.761Z,99.90
2018-08-04T23:45:30.426Z,99.90
2018-08-04T23:47:59.465Z,99.90
2018-08-04T23:50:28.491Z,99.90
2018-08-04T23:52:57.470Z,99.90
2018-08-04T23:55:26.469Z,99.90
2018-08-04T23:57:55.488Z,99.90
